Terminal Aerodrome Forecast
Issued by NWS

Home | Current Version | Previous Version | Text Only | Print | Product List | Glossary On
Versions: 1 2 3 4 5 6 7 8 9 10 11 12 13 14 15 16 17 18 19 20 21 22 23 24 25 26 27 28 29 30
000
FTUS41 KCTP 261412 AAB
TAFJST
TAF AMD
KJST 261412Z 2614/2712 00000KT P6SM OVC008
     FM261600 VRB04KT P6SM SCT006 BKN035
     FM261700 17005KT P6SM BKN028
     FM262300 15004KT P6SM SCT030
     FM270400 15005KT 4SM BR OVC006=

USA.gov is the U.S. government's official web portal to all federal, state and local government web resources and services.